createdAt,value
2017-01-01T00:00:20.693Z,143.1
2017-01-01T00:01:20.732Z,139.89
2017-01-01T00:02:20.642Z,138.37
2017-01-01T00:03:20.692Z,137.61
2017-01-01T00:04:20.669Z,135.91
2017-01-01T00:05:20.694Z,133.98
2017-01-01T00:06:20.663Z,135.28
2017-01-01T00:07:20.721Z,133.86
2017-01-01T00:08:20.698Z,132.03
2017-01-01T00:09:20.805Z,127.13
2017-01-01T00:10:20.701Z,129.35
2017-01-01T00:11:20.643Z,130.88
2017-01-01T00:12:20.667Z,128.05
2017-01-01T00:13:20.714Z,128.29
2017-01-01T00:14:20.649Z,124.8
2017-01-01T00:15:20.813Z,127.54
2017-01-01T00:16:20.700Z,123.12
2017-01-01T00:17:20.674Z,120.87
2017-01-01T00:18:20.696Z,119.78
2017-01-01T00:19:20.700Z,116.36
2017-01-01T00:20:20.695Z,116.83
2017-01-01T00:21:20.716Z,116.81
2017-01-01T00:22:20.651Z,118.59
2017-01-01T00:23:20.691Z,114.29
2017-01-01T00:24:20.686Z,113.29
2017-01-01T00:25:20.766Z,112.85
2017-01-01T00:26:20.711Z,111.85
2017-01-01T00:27:20.718Z,109.38
2017-01-01T00:28:20.617Z,111.13
2017-01-01T00:29:20.735Z,110.83
2017-01-01T00:30:20.702Z,107.79
2017-01-01T00:31:20.666Z,110.68
2017-01-01T00:32:20.669Z,110.7
2017-01-01T00:33:20.732Z,107.66
2017-01-01T00:34:30.746Z,109.87
2017-01-01T00:35:20.800Z,108.79
2017-01-01T00:36:20.720Z,106.98
2017-01-01T00:37:20.817Z,106.99
2017-01-01T00:38:20.716Z,109.24
2017-01-01T00:39:20.630Z,110.21
2017-01-01T00:40:20.676Z,109.6
2017-01-01T00:41:20.606Z,113.87
2017-01-01T00:42:20.638Z,115.56
2017-01-01T00:43:20.679Z,115.16
2017-01-01T00:44:20.671Z,114.4
2017-01-01T00:45:20.781Z,115.46
2017-01-01T00:46:20.703Z,119.77
2017-01-01T00:47:20.773Z,122.02
2017-01-01T00:48:20.722Z,123.06
2017-01-01T00:49:20.734Z,126.26
2017-01-01T00:50:20.712Z,128.46
2017-01-01T00:51:20.912Z,130.15
2017-01-01T00:52:20.680Z,131.31
2017-01-01T00:53:20.770Z,133.81
2017-01-01T00:54:20.682Z,134.78
2017-01-01T00:55:20.819Z,137.07
2017-01-01T00:56:20.823Z,138.96
2017-01-01T00:57:20.692Z,143.69
2017-01-01T00:58:20.685Z,144.2
2017-01-01T00:59:20.795Z,144.66
2017-01-01T01:00:20.698Z,147.07
2017-01-01T01:01:20.692Z,148.8
2017-01-01T01:02:20.623Z,150.7
2017-01-01T01:03:20.726Z,151.7
2017-01-01T01:04:20.646Z,151.6
2017-01-01T01:05:20.702Z,152.94
2017-01-01T01:06:20.675Z,157.02
2017-01-01T01:07:20.712Z,158.39
2017-01-01T01:08:20.739Z,156.87
2017-01-01T01:09:20.826Z,159.86
2017-01-01T01:10:20.702Z,162.22
2017-01-01T01:11:20.829Z,166.95
2017-01-01T01:12:20.703Z,165.35
2017-01-01T01:13:20.820Z,168.31
2017-01-01T01:14:20.848Z,171.99
2017-01-01T01:15:20.845Z,176.34
2017-01-01T01:16:20.780Z,174.42
2017-01-01T01:17:20.776Z,173
2017-01-01T01:18:20.678Z,174.94
2017-01-01T01:19:20.737Z,178.79
2017-01-01T01:20:20.706Z,180.59
2017-01-01T01:21:20.754Z,181.96
2017-01-01T01:22:20.789Z,183.17
2017-01-01T01:26:50.261Z,184.79
2017-01-01T01:27:50.249Z,188.16
2017-01-01T01:28:50.199Z,187.22
2017-01-01T01:29:50.242Z,182.1
2017-01-01T01:30:50.178Z,178.46
2017-01-01T01:31:50.326Z,183.29
2017-01-01T01:32:50.182Z,184.77
2017-01-01T01:33:50.229Z,187.93
2017-01-01T01:34:51.217Z,187.74
2017-01-01T01:35:50.292Z,191.94
2017-01-01T01:36:50.312Z,187.81
2017-01-01T01:37:50.214Z,188.27
2017-01-01T01:38:50.214Z,190.01
2017-01-01T01:39:50.315Z,189.98
2017-01-01T01:40:50.247Z,190.9
2017-01-01T01:41:50.245Z,190.57
2017-01-01T01:42:50.223Z,193.97
2017-01-01T01:43:50.237Z,196.61
2017-01-01T01:44:50.310Z,192.76
2017-01-01T01:45:50.189Z,193.42
2017-01-01T01:46:50.290Z,193.46
2017-01-01T01:47:50.216Z,195.57
2017-01-01T01:48:50.216Z,197.45
2017-01-01T01:49:50.227Z,199.14
2017-01-01T01:50:50.246Z,197.63
2017-01-01T01:51:50.237Z,194.27
2017-01-01T01:52:50.268Z,194.39
2017-01-01T01:53:50.242Z,199.05
2017-01-01T01:54:50.215Z,199.8
2017-01-01T01:55:50.246Z,200.02
2017-01-01T01:56:50.320Z,198.53
2017-01-01T01:57:50.194Z,199.92
2017-01-01T01:58:50.192Z,201.34
2017-01-01T02:03:20.013Z,205.4
2017-01-01T02:04:20.020Z,204.69
2017-01-01T02:05:20.032Z,205.1
2017-01-01T02:06:20.031Z,204.93
2017-01-01T02:07:20.038Z,204.77
2017-01-01T02:08:20.068Z,206.94
2017-01-01T02:09:19.990Z,209.15
2017-01-01T02:10:20.012Z,207.9
2017-01-01T02:11:20.010Z,210.23
2017-01-01T02:12:19.978Z,211.4
2017-01-01T02:13:20.122Z,211.64
2017-01-01T02:14:20.044Z,212.28
2017-01-01T02:15:20.029Z,213.24
2017-01-01T02:16:20.041Z,219.2
2017-01-01T02:17:20.011Z,219.67
2017-01-01T02:18:20.039Z,217.74
2017-01-01T02:19:20.030Z,215.53
2017-01-01T02:20:20.002Z,214.84
2017-01-01T02:21:20.108Z,215.24
2017-01-01T02:22:20.070Z,216.82
2017-01-01T02:23:20.026Z,216.36
2017-01-01T02:24:20.055Z,220.03
2017-01-01T02:25:20.023Z,219.29
2017-01-01T02:26:20.049Z,221.66
2017-01-01T02:27:20.024Z,222.64
2017-01-01T02:28:20.044Z,220.72
2017-01-01T02:29:20.003Z,222.55
2017-01-01T02:30:20.051Z,221.77
2017-01-01T02:31:20.063Z,221.32
2017-01-01T02:32:20.018Z,219.37
2017-01-01T02:33:20.018Z,215.26
2017-01-01T02:34:20.017Z,218.1
2017-01-01T02:35:19.998Z,217.44
2017-01-01T02:36:20.064Z,216.65
2017-01-01T02:37:20.038Z,213.35
2017-01-01T02:38:20.040Z,210.46
2017-01-01T02:39:20.055Z,210.46
2017-01-01T02:40:20.017Z,212.68
2017-01-01T02:41:20.008Z,210.25
2017-01-01T02:42:20.051Z,209.5
2017-01-01T02:43:20.081Z,208.59
2017-01-01T02:44:20.103Z,209.24
2017-01-01T02:45:20.048Z,207.96
2017-01-01T02:46:20.046Z,210.75
2017-01-01T02:47:20.031Z,211.45
2017-01-01T02:48:20.074Z,210.07
2017-01-01T02:49:20.047Z,212.67
2017-01-01T02:50:20.068Z,212.16
2017-01-01T02:51:20.035Z,211.07
2017-01-01T02:52:20.062Z,210.33
2017-01-01T02:53:20.094Z,208.93
2017-01-01T02:54:20.113Z,209.04
2017-01-01T02:55:20.060Z,209.57
2017-01-01T02:56:20.037Z,213.07
2017-01-01T02:57:20.067Z,213.77
2017-01-01T02:58:20.108Z,213.26
2017-01-01T02:59:20.085Z,213.44
2017-01-01T03:00:20.124Z,214.43
2017-01-01T03:01:20.039Z,212.74
2017-01-01T03:02:20.036Z,212.87
2017-01-01T03:03:20.107Z,208.28
2017-01-01T03:04:20.057Z,207.79
2017-01-01T03:05:20.050Z,207.53
2017-01-01T03:06:20.048Z,206.53
2017-01-01T03:07:20.062Z,204.33
2017-01-01T03:08:20.101Z,199
2017-01-01T03:09:20.094Z,203.16
2017-01-01T03:10:20.058Z,201.85
2017-01-01T03:11:20.082Z,203.97
2017-01-01T03:12:20.084Z,205.17
2017-01-01T03:13:20.097Z,202.31
2017-01-01T03:14:20.035Z,201.83
2017-01-01T03:15:20.030Z,206.11
2017-01-01T03:16:20.085Z,207.32
2017-01-01T03:17:20.076Z,208.49
2017-01-01T03:18:20.115Z,206.82
2017-01-01T03:19:20.081Z,207.34
2017-01-01T03:20:20.082Z,207.28
2017-01-01T03:21:20.097Z,206.95
2017-01-01T03:22:20.052Z,202.42
2017-01-01T03:23:20.116Z,200.73
2017-01-01T03:24:20.107Z,195.65
2017-01-01T03:25:20.094Z,198.28
2017-01-01T03:26:20.083Z,203.52
2017-01-01T03:27:20.108Z,205.21
2017-01-01T03:28:20.097Z,206.59
2017-01-01T03:29:20.102Z,208.23
2017-01-01T03:30:20.081Z,209.72
2017-01-01T03:31:20.069Z,210.92
2017-01-01T03:32:20.115Z,209.01
2017-01-01T03:33:20.119Z,206.52
2017-01-01T03:34:20.085Z,207.2
2017-01-01T03:35:20.065Z,206.96
2017-01-01T03:36:20.064Z,206.37
2017-01-01T03:37:20.127Z,206.13
2017-01-01T03:38:20.106Z,203.24
2017-01-01T03:39:20.040Z,200.36
2017-01-01T03:40:20.063Z,199.31
2017-01-01T03:41:20.106Z,197.89
2017-01-01T03:42:20.089Z,195.17
2017-01-01T03:43:20.109Z,195.16
2017-01-01T03:44:20.072Z,195.87
2017-01-01T03:45:20.078Z,197.61
2017-01-01T03:46:20.080Z,195.43
2017-01-01T03:47:20.082Z,192.99
2017-01-01T03:48:20.131Z,192.28
2017-01-01T03:49:20.123Z,193.89
2017-01-01T03:50:20.072Z,192.17
2017-01-01T03:51:20.081Z,193.13
2017-01-01T03:52:20.077Z,190.41
2017-01-01T03:53:20.110Z,190.58
2017-01-01T03:54:20.082Z,188.51
2017-01-01T03:55:20.070Z,187.9
2017-01-01T03:56:20.094Z,188.19
2017-01-01T03:57:20.125Z,190.14
2017-01-01T03:58:20.140Z,189.39
2017-01-01T03:59:20.078Z,187.69
2017-01-01T04:00:20.080Z,189.35
2017-01-01T04:01:20.090Z,190.28
2017-01-01T04:02:20.113Z,195.32
2017-01-01T04:03:20.122Z,195.34
2017-01-01T04:04:20.090Z,196.81
2017-01-01T04:05:20.101Z,199.18
2017-01-01T04:06:20.102Z,200.14
2017-01-01T04:07:20.100Z,201.13
2017-01-01T04:08:20.121Z,201.55
2017-01-01T04:09:20.085Z,204.4
2017-01-01T04:10:20.094Z,205.56
2017-01-01T04:11:20.105Z,207.7
2017-01-01T04:12:20.107Z,207.72
2017-01-01T04:13:20.137Z,208.2
2017-01-01T04:14:20.105Z,209.49
2017-01-01T04:15:20.109Z,203.88
2017-01-01T04:16:20.151Z,202.63
2017-01-01T04:17:20.108Z,201.13
2017-01-01T04:18:20.165Z,204.47
2017-01-01T04:19:20.127Z,207.35
2017-01-01T04:20:20.112Z,207.13
2017-01-01T04:21:20.149Z,208.98
2017-01-01T04:22:20.134Z,210.01
2017-01-01T04:23:20.155Z,209.91
2017-01-01T04:24:20.148Z,210.63
2017-01-01T04:25:20.157Z,209.96
2017-01-01T04:26:20.142Z,211.84
2017-01-01T04:27:20.126Z,211.11
2017-01-01T04:28:20.161Z,212.52
2017-01-01T04:29:20.217Z,214.66
2017-01-01T04:30:20.187Z,213.4
2017-01-01T04:31:20.170Z,210.04
2017-01-01T04:32:20.149Z,211.35
2017-01-01T04:33:20.167Z,207.92
2017-01-01T04:34:20.134Z,211.29
2017-01-01T04:35:20.141Z,207.81
2017-01-01T04:36:20.136Z,207.13
2017-01-01T04:37:20.148Z,207.99
2017-01-01T04:38:20.147Z,210.85
2017-01-01T04:39:20.130Z,212.98
2017-01-01T04:40:20.115Z,213.72
2017-01-01T04:41:20.158Z,213.74
2017-01-01T04:42:20.181Z,213.93
2017-01-01T04:43:20.148Z,211.54
2017-01-01T04:44:20.145Z,213.12
2017-01-01T04:45:20.156Z,213.85
2017-01-01T04:46:20.190Z,215.96
2017-01-01T04:47:20.195Z,217.84
2017-01-01T04:48:20.257Z,216.9
2017-01-01T04:49:20.199Z,215.18
2017-01-01T04:50:20.136Z,216.34
2017-01-01T04:51:20.169Z,217
2017-01-01T04:52:20.146Z,218.15
2017-01-01T04:53:20.193Z,217.91
2017-01-01T04:54:20.138Z,221.67
2017-01-01T04:55:20.156Z,220.78
2017-01-01T04:56:20.167Z,220.29
2017-01-01T04:57:20.163Z,219.49
2017-01-01T04:58:20.177Z,214.43
2017-01-01T04:59:20.168Z,216.34
2017-01-01T05:00:20.149Z,215.37
2017-01-01T05:01:20.158Z,218.04
2017-01-01T05:02:20.137Z,217.12
2017-01-01T05:03:20.191Z,216.12
2017-01-01T05:04:20.187Z,216.57
2017-01-01T05:05:20.175Z,216.59
2017-01-01T05:06:20.168Z,214.81
2017-01-01T05:07:20.214Z,216.7
2017-01-01T05:08:20.216Z,217.67
2017-01-01T05:09:20.157Z,222.25
2017-01-01T05:10:20.174Z,221.51
2017-01-01T05:11:20.185Z,219.32
2017-01-01T05:12:20.186Z,223.85
2017-01-01T05:13:20.200Z,223.08
2017-01-01T05:14:20.170Z,223.04
2017-01-01T05:15:20.171Z,225.15
2017-01-01T05:16:20.175Z,226.59
2017-01-01T05:17:20.180Z,227.02
2017-01-01T05:18:20.217Z,227.24
2017-01-01T05:19:20.188Z,223.2
2017-01-01T05:20:20.213Z,222.99
2017-01-01T05:21:20.188Z,223.2
2017-01-01T05:22:20.190Z,223.39
2017-01-01T05:23:20.237Z,226.22
2017-01-01T05:24:20.220Z,226.19
2017-01-01T05:25:20.202Z,225.48
2017-01-01T05:26:20.208Z,225.89
2017-01-01T05:27:20.199Z,219.98
2017-01-01T05:28:20.224Z,220.67
2017-01-01T05:29:20.239Z,219.95
2017-01-01T05:30:20.209Z,221.1
2017-01-01T05:31:20.189Z,220.67
2017-01-01T05:32:20.285Z,221.37
2017-01-01T05:33:20.199Z,221.72
2017-01-01T05:34:20.190Z,219.51
2017-01-01T05:35:20.200Z,219.69
2017-01-01T05:36:20.171Z,220.33
2017-01-01T05:37:20.265Z,222.96
2017-01-01T05:38:20.231Z,221.72
2017-01-01T05:39:20.219Z,225.26
2017-01-01T05:40:20.217Z,225.51
2017-01-01T05:41:20.214Z,228.35
2017-01-01T05:42:20.220Z,226.68
2017-01-01T05:43:20.242Z,227.59
2017-01-01T05:44:20.212Z,222.32
2017-01-01T05:45:20.211Z,222.83
2017-01-01T05:46:20.219Z,221.15
2017-01-01T05:47:20.210Z,223.04
2017-01-01T05:48:20.231Z,224.3
2017-01-01T05:49:20.211Z,223
2017-01-01T05:50:20.216Z,220.71
2017-01-01T05:51:20.242Z,218.25
2017-01-01T05:52:20.246Z,218.95
2017-01-01T05:53:20.269Z,221.56
2017-01-01T05:54:20.220Z,219.4
2017-01-01T05:55:20.236Z,221.77
2017-01-01T05:56:20.220Z,221.32
2017-01-01T05:57:20.231Z,222.98
2017-01-01T05:58:20.290Z,223.39
2017-01-01T05:59:20.227Z,219.07
2017-01-01T06:00:20.243Z,222.42
2017-01-01T06:01:20.236Z,222.92
2017-01-01T06:02:20.222Z,223.29
2017-01-01T06:03:20.271Z,221.39
2017-01-01T06:04:20.242Z,221.58
2017-01-01T06:05:20.313Z,221.45
2017-01-01T06:06:20.229Z,221.01
2017-01-01T06:07:20.265Z,223.36
2017-01-01T06:08:20.281Z,223.43
2017-01-01T06:09:20.259Z,222.15
2017-01-01T06:10:20.237Z,222.05
2017-01-01T06:11:20.235Z,221.35
2017-01-01T06:12:20.249Z,220.59
2017-01-01T06:13:20.279Z,218.95
2017-01-01T06:14:20.319Z,219.41
2017-01-01T06:15:20.281Z,217.96
2017-01-01T06:16:20.251Z,218.67
2017-01-01T06:17:20.253Z,220.32
2017-01-01T06:18:20.281Z,221.2
2017-01-01T06:19:20.259Z,222.87
2017-01-01T06:20:20.320Z,224.29
2017-01-01T06:21:20.289Z,224.24
2017-01-01T06:22:20.261Z,222.79
2017-01-01T06:23:20.278Z,223.23
2017-01-01T06:24:20.249Z,224.4
2017-01-01T06:25:20.336Z,225.95
2017-01-01T06:26:20.273Z,227.67
2017-01-01T06:27:20.251Z,224.98
2017-01-01T06:28:20.282Z,225.7
2017-01-01T06:29:20.296Z,229.48
2017-01-01T06:30:20.288Z,229.93
2017-01-01T06:31:20.309Z,226.76
2017-01-01T06:32:20.328Z,221.75
2017-01-01T06:33:20.293Z,221.95
2017-01-01T06:34:20.289Z,222.89
2017-01-01T06:35:20.272Z,224.27
2017-01-01T06:36:20.301Z,225.69
2017-01-01T06:37:20.303Z,225.92
2017-01-01T06:38:20.289Z,225.91
2017-01-01T06:39:20.297Z,227.1
2017-01-01T06:40:20.297Z,228.59
2017-01-01T06:41:20.285Z,229.26
2017-01-01T06:42:20.303Z,229.95
2017-01-01T06:43:20.307Z,229.91
2017-01-01T06:44:20.301Z,230.46
2017-01-01T06:45:20.291Z,230.46
2017-01-01T06:46:20.294Z,229.08
2017-01-01T06:47:20.301Z,230.91
2017-01-01T06:48:20.334Z,230.22
2017-01-01T06:49:20.361Z,233.05
2017-01-01T06:50:20.289Z,233.32
2017-01-01T06:51:20.320Z,233.74
2017-01-01T06:52:20.314Z,235.11
2017-01-01T06:53:20.940Z,233.22
2017-01-01T06:54:20.312Z,235.24
2017-01-01T06:55:20.327Z,237.69
2017-01-01T06:56:20.288Z,236.71
2017-01-01T06:57:20.299Z,239.26
2017-01-01T06:58:20.370Z,237.87
2017-01-01T06:59:20.351Z,236.22
2017-01-01T07:00:20.338Z,239.06
2017-01-01T07:01:20.338Z,238.1
2017-01-01T07:02:20.329Z,240.97
2017-01-01T07:03:20.328Z,242.17
2017-01-01T07:04:20.389Z,244.25
2017-01-01T07:05:20.332Z,243.73
2017-01-01T07:06:20.320Z,242.54
2017-01-01T07:07:20.317Z,245.34
2017-01-01T07:08:20.331Z,246.47
2017-01-01T07:09:20.339Z,248.88
2017-01-01T07:10:20.330Z,245.3
2017-01-01T07:11:20.357Z,245.5
2017-01-01T07:12:20.336Z,244.81
2017-01-01T07:13:20.344Z,242.3
2017-01-01T07:14:20.314Z,243.08
2017-01-01T07:15:20.302Z,242.85
2017-01-01T07:16:20.347Z,244.24
2017-01-01T07:17:20.398Z,243.98
2017-01-01T07:18:20.363Z,241.89
2017-01-01T07:19:20.331Z,242.34
2017-01-01T07:20:20.347Z,242.27
2017-01-01T07:21:20.317Z,246.42
2017-01-01T07:22:20.340Z,245.28
2017-01-01T07:23:20.344Z,247.18
2017-01-01T07:24:20.348Z,246.7
2017-01-01T07:25:20.358Z,246.73
2017-01-01T07:26:20.329Z,245.81
2017-01-01T07:27:20.354Z,246.43
2017-01-01T07:28:20.349Z,249.13
2017-01-01T07:29:20.396Z,251.39
2017-01-01T07:30:20.308Z,252.33
2017-01-01T07:31:20.381Z,249.1
2017-01-01T07:32:20.352Z,245.57
2017-01-01T07:33:20.369Z,248.01
2017-01-01T07:34:20.335Z,249.67
2017-01-01T07:35:20.401Z,246.39
2017-01-01T07:36:20.390Z,245.12
2017-01-01T07:37:20.348Z,247.82
2017-01-01T07:38:20.422Z,249.68
2017-01-01T07:39:20.371Z,251.05
2017-01-01T07:40:20.400Z,251.23
2017-01-01T07:41:20.396Z,254.93
2017-01-01T07:42:20.409Z,254.69
2017-01-01T07:43:20.403Z,256.05
2017-01-01T07:44:20.360Z,255.09
2017-01-01T07:45:20.395Z,257.68
2017-01-01T07:46:20.350Z,257.64
2017-01-01T07:47:20.359Z,257.4
2017-01-01T07:48:20.385Z,258.11
2017-01-01T07:49:20.378Z,258.32
2017-01-01T07:50:20.403Z,259.5
2017-01-01T07:51:20.386Z,261.33
2017-01-01T07:52:20.369Z,258.81
2017-01-01T07:53:20.379Z,260.47
2017-01-01T07:54:20.389Z,261.14
2017-01-01T07:55:20.366Z,256.93
2017-01-01T07:56:20.358Z,259.95
2017-01-01T07:57:20.384Z,261.61
2017-01-01T07:58:20.350Z,262.36
2017-01-01T07:59:20.409Z,261.51
2017-01-01T08:00:20.445Z,265.56
2017-01-01T08:01:20.373Z,264.79
2017-01-01T08:02:20.408Z,265.91
2017-01-01T08:03:20.388Z,267.05
2017-01-01T08:04:20.390Z,267.28
2017-01-01T08:05:20.459Z,265.15
2017-01-01T08:06:20.417Z,269.57
2017-01-01T08:07:20.390Z,270.68
2017-01-01T08:08:20.439Z,266.91
2017-01-01T08:09:20.410Z,270.74
2017-01-01T08:10:20.379Z,263.65
2017-01-01T08:11:20.397Z,267.69
2017-01-01T08:12:20.398Z,265.14
2017-01-01T08:13:20.408Z,270.69
2017-01-01T08:14:20.442Z,274.41
2017-01-01T08:15:20.405Z,272.76
2017-01-01T08:16:20.389Z,273.39
2017-01-01T08:17:20.414Z,276.15
2017-01-01T08:18:20.440Z,273.13
2017-01-01T08:19:20.421Z,275.22
2017-01-01T08:20:20.425Z,276.43
2017-01-01T08:21:20.461Z,277.95
2017-01-01T08:22:20.421Z,281.17
2017-01-01T08:23:20.511Z,282.9
2017-01-01T08:24:20.920Z,277.88
2017-01-01T08:25:20.432Z,282.19
2017-01-01T08:26:20.449Z,287.7
2017-01-01T08:27:20.402Z,285.14
2017-01-01T08:28:20.495Z,285.52
2017-01-01T08:29:20.411Z,288.73
2017-01-01T08:30:20.467Z,287.49
2017-01-01T08:31:20.436Z,292.14
2017-01-01T08:32:20.428Z,294.63
2017-01-01T08:33:20.430Z,295.53
2017-01-01T08:34:20.416Z,293.72
2017-01-01T08:35:20.429Z,294.78
2017-01-01T08:36:20.388Z,295.21
2017-01-01T08:37:20.416Z,299.58
2017-01-01T08:38:20.397Z,301.15
2017-01-01T08:39:20.409Z,303.41
2017-01-01T08:40:20.432Z,305.47
2017-01-01T08:41:20.409Z,305.91
2017-01-01T08:42:20.426Z,307.71
2017-01-01T08:43:20.437Z,309.79
2017-01-01T08:44:20.421Z,311.7
2017-01-01T08:45:20.425Z,312.56
2017-01-01T08:46:20.474Z,312.1
2017-01-01T08:47:20.434Z,314.33
2017-01-01T08:48:20.466Z,315.16
2017-01-01T08:49:20.417Z,315.65
2017-01-01T08:50:20.487Z,319.92
2017-01-01T08:51:20.539Z,321.97
2017-01-01T08:52:20.514Z,322.43
2017-01-01T08:53:20.600Z,321.55
2017-01-01T08:54:20.579Z,324.21
2017-01-01T08:55:20.526Z,324.72
2017-01-01T08:56:20.452Z,325.61
2017-01-01T08:57:20.493Z,326.05
2017-01-01T08:58:20.444Z,325.38
2017-01-01T08:59:20.486Z,329.85
2017-01-01T09:00:20.462Z,329.87
2017-01-01T09:01:20.515Z,329.18
2017-01-01T09:02:20.491Z,325.17
2017-01-01T09:03:20.453Z,323.17
2017-01-01T09:04:20.448Z,327.21
2017-01-01T09:05:20.531Z,328.51
2017-01-01T09:06:20.519Z,332.05
2017-01-01T09:07:20.472Z,332.96
2017-01-01T09:08:20.451Z,334.04
2017-01-01T09:09:20.508Z,338.34
2017-01-01T09:10:20.490Z,335.16
2017-01-01T09:11:20.473Z,334.91
2017-01-01T09:12:20.476Z,337.13
2017-01-01T09:13:20.534Z,340.08
2017-01-01T09:14:20.451Z,337.23
2017-01-01T09:15:20.487Z,344.01
2017-01-01T09:16:20.500Z,341.95
2017-01-01T09:17:20.601Z,347.72
2017-01-01T09:18:20.477Z,359.28
2017-01-01T09:19:20.526Z,353.25
2017-01-01T09:20:20.540Z,353.26
2017-01-01T09:21:20.441Z,360.58
2017-01-01T09:22:20.488Z,361.93
2017-01-01T09:23:20.496Z,359.35
2017-01-01T09:24:20.511Z,352.27
2017-01-01T09:25:20.454Z,361.8
2017-01-01T09:26:20.477Z,375.02
2017-01-01T09:27:20.510Z,384.85
2017-01-01T09:28:20.525Z,384.61
2017-01-01T09:29:20.440Z,387.36
2017-01-01T09:30:20.469Z,376.83
2017-01-01T09:31:20.482Z,375.48
2017-01-01T09:32:20.568Z,373.54
2017-01-01T09:33:20.537Z,374.81
2017-01-01T09:34:20.529Z,377.86
2017-01-01T09:35:20.468Z,383.11
2017-01-01T09:36:20.492Z,382.63
2017-01-01T09:37:20.521Z,384.59
2017-01-01T09:38:20.504Z,385.46
2017-01-01T09:39:20.540Z,385.88
2017-01-01T09:40:20.498Z,390.36
2017-01-01T09:41:20.563Z,392.28
2017-01-01T09:42:20.500Z,400.14
2017-01-01T09:43:20.507Z,408.77
2017-01-01T09:44:20.529Z,402.73
2017-01-01T09:45:20.508Z,411.8
2017-01-01T09:46:20.547Z,410.27
2017-01-01T09:47:20.500Z,414.08
2017-01-01T09:48:20.486Z,413.88
2017-01-01T09:49:20.569Z,418.11
2017-01-01T09:50:20.536Z,419.12
2017-01-01T09:51:20.484Z,419.15
2017-01-01T09:52:20.518Z,430.64
2017-01-01T09:53:20.497Z,440.99
2017-01-01T09:54:20.501Z,460.7
2017-01-01T09:55:20.525Z,478.99
2017-01-01T09:56:20.512Z,491.08
2017-01-01T09:57:20.696Z,508.46
2017-01-01T09:58:20.557Z,523.31
2017-01-01T09:59:20.524Z,537.32
2017-01-01T10:00:20.503Z,549.33
2017-01-01T10:01:20.565Z,562.78
2017-01-01T10:02:20.573Z,571.27
2017-01-01T10:03:20.606Z,585.34
2017-01-01T10:04:20.497Z,590.69
2017-01-01T10:05:20.504Z,595.83
2017-01-01T10:06:20.661Z,617.3
2017-01-01T10:07:20.537Z,631.24
2017-01-01T10:08:20.734Z,638.53
2017-01-01T10:09:20.624Z,653.12
2017-01-01T10:10:20.524Z,654.81
2017-01-01T10:11:20.556Z,654.04
2017-01-01T10:12:20.552Z,665.36
2017-01-01T10:13:20.493Z,670.17
2017-01-01T10:14:20.585Z,663.91
2017-01-01T10:15:20.571Z,661.18
2017-01-01T10:16:20.532Z,641.31
2017-01-01T10:17:20.528Z,625.95
2017-01-01T10:18:20.569Z,618.22
2017-01-01T10:19:20.635Z,603.26
2017-01-01T10:20:20.624Z,592.11
2017-01-01T10:21:20.642Z,577.24
2017-01-01T10:22:20.598Z,570.37
2017-01-01T10:23:20.610Z,563.65
2017-01-01T10:24:20.595Z,553.5
2017-01-01T10:25:20.565Z,542.56
2017-01-01T10:26:20.643Z,538.5
2017-01-01T10:27:20.588Z,530.47
2017-01-01T10:28:20.721Z,526.72
2017-01-01T10:29:20.558Z,521.89
2017-01-01T10:30:20.769Z,514.51
2017-01-01T10:31:20.627Z,511.84
2017-01-01T10:32:20.752Z,501.18
2017-01-01T10:33:20.630Z,498.14
2017-01-01T10:34:20.563Z,492.25
2017-01-01T10:35:20.660Z,482.12
2017-01-01T10:36:20.647Z,477.42
2017-01-01T10:37:20.641Z,472.2
2017-01-01T10:38:20.607Z,467.26
2017-01-01T10:39:20.561Z,471.34
2017-01-01T10:40:20.633Z,462.47
2017-01-01T10:41:20.587Z,460.75
2017-01-01T10:42:20.661Z,461.65
2017-01-01T10:43:20.636Z,454.11
2017-01-01T10:44:20.728Z,447.68
2017-01-01T10:45:20.642Z,436.52
2017-01-01T10:46:20.574Z,438.59
2017-01-01T10:47:20.572Z,442.1
2017-01-01T10:48:20.609Z,446.08
2017-01-01T10:49:20.695Z,448.81
2017-01-01T10:50:20.841Z,443.64
2017-01-01T10:51:20.728Z,440.5
2017-01-01T10:52:20.775Z,443.9
2017-01-01T10:53:20.733Z,447.89
2017-01-01T10:54:20.825Z,451.3
2017-01-01T10:55:20.770Z,451.74
2017-01-01T10:56:20.784Z,440.37
2017-01-01T10:57:20.646Z,438.9
2017-01-01T10:58:20.798Z,441.23
2017-01-01T10:59:20.699Z,448.59
2017-01-01T11:00:20.654Z,450.89
2017-01-01T11:01:21.130Z,446.87
2017-01-01T11:02:20.715Z,449.11
2017-01-01T11:03:20.599Z,450.8
2017-01-01T11:04:21.223Z,453.47
2017-01-01T11:05:20.696Z,453.89
2017-01-01T11:06:20.730Z,453.83
2017-01-01T11:07:20.708Z,454.42
2017-01-01T11:08:20.705Z,457.14
2017-01-01T11:09:20.688Z,457.51
2017-01-01T11:10:20.663Z,458.83
2017-01-01T11:11:20.771Z,463.74
2017-01-01T11:12:20.787Z,468.83
2017-01-01T11:13:20.787Z,460.98
2017-01-01T11:14:20.761Z,467.91
2017-01-01T11:15:20.840Z,470.27
2017-01-01T11:16:20.902Z,468.85
2017-01-01T11:17:20.822Z,482.94
2017-01-01T11:18:20.698Z,496.24
2017-01-01T11:19:20.809Z,504.89
2017-01-01T11:20:20.753Z,514.81
2017-01-01T11:21:20.681Z,523.4
2017-01-01T11:22:20.692Z,537.36
2017-01-01T11:23:20.871Z,550.34
2017-01-01T11:24:20.890Z,559.47
2017-01-01T11:25:20.674Z,557.47
2017-01-01T11:26:20.752Z,565.63
2017-01-01T11:27:20.769Z,572.16
2017-01-01T11:28:20.816Z,570.78
2017-01-01T11:29:20.874Z,587.06
2017-01-01T11:30:20.790Z,595.09
2017-01-01T11:31:20.786Z,591.48
2017-01-01T11:32:20.771Z,603.78
2017-01-01T11:33:20.773Z,602.29
2017-01-01T11:34:20.760Z,610.77
2017-01-01T11:35:20.790Z,621.43
2017-01-01T11:39:50.412Z,614.7
2017-01-01T11:40:50.180Z,618.99
2017-01-01T11:41:50.243Z,619.33
2017-01-01T11:42:50.197Z,624.49
2017-01-01T11:43:50.192Z,615.81
2017-01-01T11:45:00.177Z,613.76
2017-01-01T11:45:50.087Z,614.52
2017-01-01T11:46:50.399Z,610.03
2017-01-01T11:47:50.285Z,610.01
2017-01-01T11:48:50.238Z,605.77
2017-01-01T11:49:50.335Z,598.85
2017-01-01T11:50:50.267Z,604.32
2017-01-01T11:51:50.198Z,612.56
2017-01-01T11:52:50.289Z,601.91
2017-01-01T11:53:50.204Z,602.23
2017-01-01T11:54:50.297Z,595.63
2017-01-01T11:55:50.151Z,600.73
2017-01-01T11:56:50.172Z,602.96
2017-01-01T11:57:50.136Z,599.92
2017-01-01T11:58:50.130Z,606.51
2017-01-01T11:59:50.167Z,613.22
2017-01-01T12:00:50.179Z,604.79
2017-01-01T12:01:50.154Z,609.48
2017-01-01T12:02:50.191Z,611.27
2017-01-01T12:03:50.163Z,615.55
2017-01-01T12:04:50.188Z,610.32
2017-01-01T12:05:50.224Z,614.3
2017-01-01T12:06:50.193Z,619.64
2017-01-01T12:07:50.164Z,626.56
2017-01-01T12:08:50.183Z,627.02
2017-01-01T12:09:50.130Z,618.87
2017-01-01T12:10:50.111Z,624.38
2017-01-01T12:11:50.146Z,635.11
2017-01-01T12:12:50.125Z,631.92
2017-01-01T12:13:50.754Z,636.31
2017-01-01T12:14:50.223Z,640.36
2017-01-01T12:15:50.123Z,642.74
2017-01-01T12:16:50.177Z,637.92
2017-01-01T12:17:50.155Z,636.99
2017-01-01T12:18:50.201Z,643.65
2017-01-01T12:19:50.237Z,647.32
2017-01-01T12:20:50.099Z,636.29
2017-01-01T12:21:50.772Z,640.36
2017-01-01T12:22:50.134Z,643.51
2017-01-01T12:23:50.079Z,650.68
2017-01-01T12:24:50.122Z,648.38
2017-01-01T12:25:50.091Z,647.08
2017-01-01T12:26:50.205Z,646.44
2017-01-01T12:27:50.129Z,636.05
2017-01-01T12:28:50.165Z,634.04
2017-01-01T12:29:50.196Z,633.41
2017-01-01T12:30:50.202Z,637.98
2017-01-01T12:31:50.138Z,629.74
2017-01-01T12:32:50.232Z,631.04
2017-01-01T12:33:50.267Z,633.4
2017-01-01T12:34:51.130Z,636.69
2017-01-01T12:35:50.222Z,630.66
2017-01-01T12:36:50.391Z,629.48
2017-01-01T12:37:50.416Z,636.59
2017-01-01T12:38:50.329Z,626.86
2017-01-01T12:39:50.273Z,631.47
2017-01-01T12:40:50.216Z,639.72